PDT,Max TemperatureF,Mean TemperatureF,Min TemperatureF,Max Dew PointF,MeanDew PointF,Min DewpointF,Max Humidity, Mean Humidity, Min Humidity, Max Sea Level PressureIn, Mean Sea Level PressureIn, Min Sea Level PressureIn, Max VisibilityMiles, Mean VisibilityMiles, Min VisibilityMiles, Max Wind SpeedMPH, Mean Wind SpeedMPH, Max Gust SpeedMPH,PrecipitationIn, CloudCover, Events, WindDirDegrees
2013-6-1,109,93,77,55,41,20,40,22,4,29.76,29.69,29.61,10,10,10,10,4,13,0.00,1,,299
2013-6-2,107,91,74,60,47,31,60,34,7,29.67,29.61,29.54,10,10,10,22,5,28,0.00,0,,356
2013-6-3,102,87,72,53,45,32,44,27,9,29.71,29.65,29.58,10,10,10,18,4,24,0.00,0,,328
2013-6-4,102,85,68,53,46,35,55,33,11,29.78,29.72,29.68,10,10,10,21,5,26,0.00,0,,348
2013-6-5,104,87,70,53,45,35,57,34,10,29.81,29.75,29.69,10,10,10,18,4,22,0.00,0,,321
2013-6-6,108,90,72,54,46,34,49,29,9,29.73,29.69,29.62,10,10,10,18,4,25,0.00,0,,311
2013-6-7,114,94,74,54,45,27,43,24,5,29.70,29.63,29.57,10,10,10,20,4,25,0.00,0,,333
2013-6-8,103,90,77,57,53,47,45,30,15,29.74,29.68,29.60,10,10,10,13,4,16,0.00,0,,67
2013-6-9,102,88,74,59,47,26,58,35,11,29.80,29.75,29.69,10,10,9,13,4,16,0.00,1,,3
2013-6-10,102,86,70,46,38,29,44,27,10,29.78,29.73,29.68,10,10,10,32,5,37,0.00,0,,339
2013-6-11,107,88,69,51,37,21,44,25,5,29.82,29.77,29.71,10,10,10,12,3,16,0.00,0,,159
2013-6-12,105,90,75,56,49,36,50,32,13,29.82,29.77,29.73,10,10,10,24,6,30,0.00,0,,317
2013-6-13,107,90,72,51,42,28,43,25,7,29.84,29.76,29.69,10,10,10,23,3,30,0.00,0,,316
2013-6-14,105,88,71,52,40,19,49,27,5,29.79,29.71,29.63,10,10,10,14,4,22,0.00,0,,18
2013-6-15,104,87,69,48,29,5,38,21,3,29.78,29.73,29.69,10,10,10,28,6,35,0.00,0,,310
2013-6-16,105,86,67,49,37,12,49,27,5,29.86,29.79,29.74,10,10,10,9,2,20,0.00,0,,305
2013-6-17,108,90,71,54,41,22,53,30,6,29.82,29.76,29.70,10,10,10,17,4,24,0.00,0,,330
2013-6-18,107,90,72,55,42,32,57,33,8,29.75,29.68,29.61,10,10,10,22,2,29,0.00,0,,323
2013-6-19,103,88,73,48,41,32,33,21,9,29.69,29.64,29.60,10,10,10,18,7,24,0.00,0,,317
2013-6-20,102,87,72,51,41,27,46,27,8,29.72,29.67,29.62,10,10,10,12,3,17,0.00,0,,276
2013-6-21,102,86,70,48,40,33,38,24,9,29.76,29.69,29.63,10,10,10,18,4,25,0.00,1,,307
2013-6-22,103,87,71,49,44,34,38,24,10,29.76,29.69,29.62,10,10,10,20,5,25,0.00,0,,320
2013-6-23,100,87,73,53,47,38,46,29,12,29.69,29.63,29.57,10,10,10,25,7,31,0.00,0,,311
2013-6-24,95,84,72,53,50,43,49,34,19,29.76,29.70,29.62,10,10,10,17,9,28,0.00,0,,310
2013-6-25,102,87,72,57,54,49,54,37,19,29.84,29.78,29.71,10,10,10,20,3,24,0.00,0,,301
2013-6-26,103,91,79,60,56,53,54,37,20,29.89,29.84,29.78,10,10,10,13,4,20,0.00,0,,101
2013-6-27,109,96,82,60,54,49,47,32,16,29.94,29.88,29.81,10,10,3,13,4,18,0.00,0,,94
2013-6-28,118,99,79,59,49,37,46,27,7,29.83,29.76,29.67,10,10,10,22,5,26,0.00,0,,312
2013-6-29,122,103,84,62,48,32,37,22,6,29.71,29.66,29.57,10,10,10,16,4,24,0.00,1,,5
2013-6-30,111,99,86,60,55,48,32,24,15,29.74,29.67,29.57,10,10,10,10,5,18,0.00,1,,34